Time;durP1;ratioP1;P1;durP2;ratioP2;P2;SDS_P1;SDS_P2;PMS_P1;PMS_P2;Temp;Humidity;BMP_temperature;BMP_pressure;BME280_temperature;BME280_humidity;BME280_pressure;Samples;Min_cycle;Max_cycle;Signal;HPM_P1;HPM_P2
2021/11/19 00:01:50;;;;;;;3.13;2.92;;;;;;;;;;4973503;28;20046;-75
2021/11/19 00:04:16;;;;;;;3.58;3.38;;;;;;;;;;4956342;28;20045;-77
2021/11/19 00:06:42;;;;;;;3.20;2.67;;;;;;;;;;4973368;28;20046;-75
2021/11/19 00:09:09;;;;;;;2.63;2.53;;;;;;;;;;4972914;28;20062;-76
2021/11/19 00:11:38;;;;;;;3.20;2.72;;;;;;;;;;4969469;28;20095;-75
2021/11/19 00:14:05;;;;;;;2.90;2.35;;;;;;;;;;4953818;29;20047;-75
2021/11/19 00:16:32;;;;;;;2.47;2.35;;;;;;;;;;4951490;29;20121;-76
2021/11/19 00:18:58;;;;;;;2.85;2.65;;;;;;;;;;4953465;29;20051;-76
2021/11/19 00:21:26;;;;;;;3.05;2.30;;;;;;;;;;4953802;29;20059;-76
2021/11/19 00:23:52;;;;;;;2.50;2.40;;;;;;;;;;4952010;29;20473;-75
2021/11/19 00:26:19;;;;;;;2.67;2.47;;;;;;;;;;4953841;29;20137;-75
2021/11/19 00:28:45;;;;;;;3.60;2.50;;;;;;;;;;4965253;28;20043;-75
2021/11/19 00:31:12;;;;;;;2.38;2.17;;;;;;;;;;4972318;28;20050;-75
2021/11/19 00:33:39;;;;;;;4.13;2.30;;;;;;;;;;4972829;28;20420;-76
2021/11/19 00:36:08;;;;;;;2.92;2.78;;;;;;;;;;4955304;28;20042;-75
2021/11/19 00:38:35;;;;;;;1.63;1.35;;;;;;;;;;4953071;28;20413;-74
2021/11/19 00:41:04;;;;;;;2.45;2.35;;;;;;;;;;4955438;28;20097;-74
2021/11/19 00:43:29;;;;;;;3.45;2.60;;;;;;;;;;4972996;28;20038;-75
2021/11/19 00:45:56;;;;;;;7.45;2.65;;;;;;;;;;4972289;28;20503;-76
2021/11/19 00:48:24;;;;;;;2.40;2.30;;;;;;;;;;4972640;28;20101;-75
2021/11/19 00:51:18;;;;;;;4.75;3.17;;;;;;;;;;4955369;28;20197;-77
2021/11/19 00:53:48;;;;;;;3.20;2.53;;;;;;;;;;4969882;28;20574;-75
2021/11/19 00:56:15;;;;;;;;;;;;;;;;;;4973023;28;20420;-75
2021/11/19 00:58:41;;;;;;;2.28;2.17;;;;;;;;;;4952836;28;19917;-76
2021/11/19 01:01:11;;;;;;;2.92;2.63;;;;;;;;;;4971839;28;20043;-75
2021/11/19 01:03:37;;;;;;;3.17;2.97;;;;;;;;;;4972447;28;20051;-74
2021/11/19 01:06:03;;;;;;;2.88;2.53;;;;;;;;;;4972497;28;20404;-75
2021/11/19 01:08:29;;;;;;;2.72;2.50;;;;;;;;;;4972053;28;20109;-76
2021/11/19 01:10:58;;;;;;;2.70;2.47;;;;;;;;;;4972320;28;20057;-75
2021/11/19 01:13:26;;;;;;;3.28;2.53;;;;;;;;;;4953898;28;20043;-76
2021/11/19 01:16:05;;;;;;;2.65;2.55;;;;;;;;;;4952125;29;20078;-76
2021/11/19 01:19:00;;;;;;;2.80;2.55;;;;;;;;;;4951579;29;20058;-76
2021/11/19 01:21:38;;;;;;;3.40;3.20;;;;;;;;;;4947909;29;20043;-76
2021/11/19 01:24:05;;;;;;;3.13;2.47;;;;;;;;;;4952995;29;20121;-75
2021/11/19 01:26:33;;;;;;;4.13;2.47;;;;;;;;;;4953016;29;20035;-75
2021/11/19 01:29:02;;;;;;;2.72;2.63;;;;;;;;;;4952548;29;20054;-75
2021/11/19 01:31:33;;;;;;;3.20;2.55;;;;;;;;;;4951530;29;20153;-75
2021/11/19 01:34:00;;;;;;;2.72;2.63;;;;;;;;;;4935669;29;20039;-76
2021/11/19 01:36:26;;;;;;;5.97;2.70;;;;;;;;;;4952015;29;20098;-76
2021/11/19 01:38:52;;;;;;;2.65;2.55;;;;;;;;;;4952996;29;20133;-77
2021/11/19 01:41:22;;;;;;;2.58;2.33;;;;;;;;;;4953018;29;20612;-75
2021/11/19 01:43:49;;;;;;;2.38;2.22;;;;;;;;;;4950219;29;20039;-76
2021/11/19 01:46:20;;;;;;;3.60;3.28;;;;;;;;;;4952677;29;20167;-74
2021/11/19 01:48:48;;;;;;;2.75;2.55;;;;;;;;;;4953138;29;20532;-75
2021/11/19 01:51:19;;;;;;;3.28;2.95;;;;;;;;;;4952215;29;20150;-75
2021/11/19 01:53:55;;;;;;;2.90;2.63;;;;;;;;;;4952855;29;20126;-75
2021/11/19 01:56:27;;;;;;;2.78;2.63;;;;;;;;;;4935313;29;20749;-75
2021/11/19 01:59:13;;;;;;;3.25;2.58;;;;;;;;;;4952116;29;20043;-75
2021/11/19 02:01:44;;;;;;;2.78;2.67;;;;;;;;;;4952808;29;20050;-75
2021/11/19 02:04:13;;;;;;;3.15;2.95;;;;;;;;;;4950073;28;20846;-76
2021/11/19 02:06:50;;;;;;;4.47;3.28;;;;;;;;;;4955481;29;20069;-75
2021/11/19 02:09:34;;;;;;;3.08;2.60;;;;;;;;;;4956522;29;20155;-76
2021/11/19 02:12:38;;;;;;;3.60;1.52;;;;;;;;;;4961553;28;20416;-74
2021/11/19 02:15:17;;;;;;;3.30;3.20;;;;;;;;;;4953439;28;20094;-74
2021/11/19 02:17:47;;;;;;;3.35;3.15;;;;;;;;;;4975152;28;20050;-76
2021/11/19 02:20:16;;;;;;;3.72;2.80;;;;;;;;;;4975146;28;20054;-75
2021/11/19 02:22:51;;;;;;;3.00;2.53;;;;;;;;;;4975074;28;20085;-74
2021/11/19 02:25:22;;;;;;;3.20;2.78;;;;;;;;;;4975555;28;20510;-75
2021/11/19 02:27:55;;;;;;;2.80;2.63;;;;;;;;;;4963990;28;20047;-77
2021/11/19 02:30:33;;;;;;;2.65;2.55;;;;;;;;;;4954267;29;20054;-76
2021/11/19 02:33:10;;;;;;;3.00;2.90;;;;;;;;;;4960080;28;20106;-75
2021/11/19 02:36:03;;;;;;;3.17;2.42;;;;;;;;;;4964282;28;20042;-75
2021/11/19 02:38:45;;;;;;;4.85;4.50;;;;;;;;;;4951741;28;20444;-75
2021/11/19 02:41:13;;;;;;;3.05;2.85;;;;;;;;;;4971131;28;20166;-76
2021/11/19 02:43:45;;;;;;;3.75;3.20;;;;;;;;;;4948107;28;20039;-75
2021/11/19 02:46:27;;;;;;;2.58;2.38;;;;;;;;;;4974964;28;20082;-76
2021/11/19 02:48:52;;;;;;;2.63;2.50;;;;;;;;;;4972618;28;20047;-76
2021/11/19 02:51:18;;;;;;;2.70;2.50;;;;;;;;;;4956096;28;20031;-74
2021/11/19 02:53:46;;;;;;;2.45;2.35;;;;;;;;;;4955512;29;20055;-75
2021/11/19 02:56:13;;;;;;;3.75;3.28;;;;;;;;;;4954103;29;20070;-75
2021/11/19 02:58:44;;;;;;;2.92;2.72;;;;;;;;;;4953873;29;20051;-76
2021/11/19 03:01:14;;;;;;;1.75;1.65;;;;;;;;;;4955025;29;20400;-75
2021/11/19 03:03:44;;;;;;;5.28;3.03;;;;;;;;;;4955185;29;20053;-76
2021/11/19 03:06:09;;;;;;;3.50;3.25;;;;;;;;;;4952218;29;20126;-75
2021/11/19 03:08:35;;;;;;;3.28;2.67;;;;;;;;;;4955126;29;20497;-76
2021/11/19 03:11:02;;;;;;;4.72;2.55;;;;;;;;;;4952971;29;20054;-76
2021/11/19 03:13:30;;;;;;;2.65;2.55;;;;;;;;;;4954386;29;20130;-75
2021/11/19 03:15:56;;;;;;;3.22;2.17;;;;;;;;;;4954095;28;20066;-75
2021/11/19 03:18:24;;;;;;;2.35;2.20;;;;;;;;;;4954372;29;20421;-75
2021/11/19 03:20:53;;;;;;;4.88;2.75;;;;;;;;;;4953223;29;20055;-76
2021/11/19 03:23:19;;;;;;;3.22;2.90;;;;;;;;;;4954976;29;20082;-75
2021/11/19 03:25:45;;;;;;;3.95;2.45;;;;;;;;;;4954706;29;20516;-76
2021/11/19 03:28:13;;;;;;;3.10;2.47;;;;;;;;;;4953030;29;20043;-75
2021/11/19 03:30:41;;;;;;;3.08;2.70;;;;;;;;;;4954422;29;20493;-77
2021/11/19 03:33:09;;;;;;;3.67;2.88;;;;;;;;;;4951805;29;20497;-75
2021/11/19 03:35:35;;;;;;;3.65;3.45;;;;;;;;;;4954209;29;20039;-76
2021/11/19 03:38:02;;;;;;;3.20;3.00;;;;;;;;;;4954671;29;20046;-76
2021/11/19 03:40:31;;;;;;;3.75;3.42;;;;;;;;;;4953262;29;20043;-75
2021/11/19 03:43:00;;;;;;;2.88;2.67;;;;;;;;;;4954023;29;20039;-75
2021/11/19 03:45:31;;;;;;;3.03;2.83;;;;;;;;;;4953137;29;20155;-75
2021/11/19 03:47:57;;;;;;;4.63;2.97;;;;;;;;;;4954393;29;20055;-75
2021/11/19 03:50:54;;;;;;;2.63;1.92;;;;;;;;;;4952729;29;20492;-77
2021/11/19 03:53:23;;;;;;;6.18;3.33;;;;;;;;;;4953801;29;20109;-76
2021/11/19 03:55:50;;;;;;;4.72;3.22;;;;;;;;;;4951905;29;20043;-75
2021/11/19 03:58:18;;;;;;;4.18;2.83;;;;;;;;;;4953835;29;20129;-74
2021/11/19 04:00:49;;;;;;;3.50;3.25;;;;;;;;;;4954225;29;20050;-75
2021/11/19 04:03:16;;;;;;;5.70;4.68;;;;;;;;;;4954343;29;20163;-75
2021/11/19 04:05:44;;;;;;;2.97;2.78;;;;;;;;;;4953233;29;20051;-76
2021/11/19 04:08:10;;;;;;;5.18;3.50;;;;;;;;;;4953539;29;20047;-76
2021/11/19 04:10:37;;;;;;;3.78;3.47;;;;;;;;;;4952671;29;20094;-75
2021/11/19 04:13:03;;;;;;;9.48;4.15;;;;;;;;;;4966741;28;20548;-76
2021/11/19 04:15:35;;;;;;;4.00;3.65;;;;;;;;;;4971626;28;20039;-76
2021/11/19 04:18:01;;;;;;;3.60;3.38;;;;;;;;;;4971373;28;20555;-75
2021/11/19 04:20:27;;;;;;;7.30;3.85;;;;;;;;;;4959562;28;20147;-75
2021/11/19 04:22:54;;;;;;;4.53;4.13;;;;;;;;;;4952771;29;20067;-77
2021/11/19 04:25:21;;;;;;;5.22;4.25;;;;;;;;;;4935734;29;20067;-75
2021/11/19 04:27:47;;;;;;;6.70;4.10;;;;;;;;;;4951583;28;20053;-76
2021/11/19 04:30:17;;;;;;;5.95;4.45;;;;;;;;;;4952154;29;20051;-76
2021/11/19 04:32:43;;;;;;;;;;;;;;;;;;4953898;29;20050;-75
2021/11/19 04:35:09;;;;;;;4.63;3.63;;;;;;;;;;4952177;29;19918;-78
2021/11/19 04:37:34;;;;;;;5.95;4.80;;;;;;;;;;4950430;29;20137;-76
2021/11/19 04:40:00;;;;;;;6.78;4.40;;;;;;;;;;4953043;29;20074;-76
2021/11/19 04:42:26;;;;;;;4.95;4.55;;;;;;;;;;4952313;29;20078;-76
2021/11/19 04:44:51;;;;;;;8.63;5.07;;;;;;;;;;4952993;29;20039;-76
2021/11/19 04:47:18;;;;;;;5.13;4.65;;;;;;;;;;4939191;29;20048;-77
2021/11/19 04:49:43;;;;;;;7.57;5.15;;;;;;;;;;4938038;29;20051;-76
2021/11/19 04:52:11;;;;;;;7.38;5.10;;;;;;;;;;4952920;29;20047;-76
2021/11/19 04:54:37;;;;;;;6.25;5.43;;;;;;;;;;4953018;29;20058;-76
2021/11/19 04:57:03;;;;;;;7.53;4.95;;;;;;;;;;4951640;29;20397;-76
2021/11/19 04:59:29;;;;;;;5.30;4.15;;;;;;;;;;4949265;29;20039;-75
2021/11/19 05:02:07;;;;;;;7.80;4.90;;;;;;;;;;4952714;29;20125;-75
2021/11/19 05:04:34;;;;;;;6.10;4.80;;;;;;;;;;4952317;29;20046;-76
2021/11/19 05:07:00;;;;;;;7.07;4.75;;;;;;;;;;4951387;29;20502;-75
2021/11/19 05:09:29;;;;;;;4.55;4.13;;;;;;;;;;4935110;29;20150;-74
2021/11/19 05:12:07;;;;;;;5.72;4.38;;;;;;;;;;4941621;28;20275;-76
2021/11/19 05:14:33;;;;;;;5.63;4.65;;;;;;;;;;4970289;28;20121;-76
2021/11/19 05:17:01;;;;;;;4.32;4.03;;;;;;;;;;4971929;28;20500;-76
2021/11/19 05:19:26;;;;;;;6.28;4.10;;;;;;;;;;4966639;28;20997;-76
2021/11/19 05:21:52;;;;;;;8.63;4.57;;;;;;;;;;4948794;29;20043;-77
2021/11/19 05:24:18;;;;;;;4.57;4.07;;;;;;;;;;4952151;29;20509;-76
2021/11/19 05:26:46;;;;;;;8.15;5.28;;;;;;;;;;4949833;29;20428;-76
2021/11/19 05:29:12;;;;;;;4.57;4.18;;;;;;;;;;4951268;29;20424;-75
2021/11/19 05:31:38;;;;;;;5.13;4.55;;;;;;;;;;4950346;29;20137;-78
2021/11/19 05:34:04;;;;;;;10.73;4.47;;;;;;;;;;4949366;29;20051;-77
2021/11/19 05:36:30;;;;;;;5.03;4.30;;;;;;;;;;4952263;29;20493;-77
2021/11/19 05:38:55;;;;;;;4.95;4.40;;;;;;;;;;4952143;28;20040;-75
2021/11/19 05:41:26;;;;;;;4.75;4.20;;;;;;;;;;4955176;29;20127;-76
2021/11/19 05:43:54;;;;;;;5.57;3.78;;;;;;;;;;4954464;29;20054;-76
2021/11/19 05:46:23;;;;;;;5.53;4.63;;;;;;;;;;4955160;29;20065;-75
2021/11/19 05:48:50;;;;;;;6.22;5.63;;;;;;;;;;4956000;29;20057;-75
2021/11/19 05:51:17;;;;;;;9.38;4.88;;;;;;;;;;4955408;29;20050;-76
2021/11/19 05:53:43;;;;;;;6.30;5.28;;;;;;;;;;4955467;29;20079;-76
2021/11/19 05:56:11;;;;;;;8.15;5.10;;;;;;;;;;4955429;29;20129;-75
2021/11/19 05:58:36;;;;;;;8.25;5.90;;;;;;;;;;4938354;29;20058;-76
2021/11/19 06:01:06;;;;;;;7.00;5.55;;;;;;;;;;4955663;29;20047;-76
2021/11/19 06:03:33;;;;;;;5.28;4.78;;;;;;;;;;4955536;29;20564;-76
2021/11/19 06:05:58;;;;;;;4.85;3.85;;;;;;;;;;4953523;29;20433;-75
2021/11/19 06:08:24;;;;;;;5.97;5.47;;;;;;;;;;4955923;29;20055;-76
2021/11/19 06:11:02;;;;;;;6.05;4.68;;;;;;;;;;4955813;29;20046;-76
2021/11/19 06:13:37;;;;;;;6.20;5.25;;;;;;;;;;4971291;28;20369;-76
2021/11/19 06:16:06;;;;;;;5.70;5.20;;;;;;;;;;4975076;28;20062;-76
2021/11/19 06:18:38;;;;;;;5.38;4.78;;;;;;;;;;4960632;28;20079;-76
2021/11/19 06:21:09;;;;;;;7.88;5.70;;;;;;;;;;4953696;29;20039;-76
2021/11/19 06:23:39;;;;;;;6.47;4.32;;;;;;;;;;4954312;29;20047;-76
2021/11/19 06:26:09;;;;;;;;;;;;;;;;;;4953857;29;20121;-75
2021/11/19 06:28:39;;;;;;;9.95;5.07;;;;;;;;;;4952377;29;19922;-76
2021/11/19 06:31:04;;;;;;;;;;;;;;;;;;4938669;29;20046;-76
2021/11/19 06:33:30;;;;;;;6.68;5.55;;;;;;;;;;4955118;29;19918;-75
2021/11/19 06:35:56;;;;;;;9.27;5.00;;;;;;;;;;4955511;29;20043;-77
2021/11/19 06:38:22;;;;;;;5.72;4.90;;;;;;;;;;4955671;29;20050;-78
2021/11/19 06:40:48;;;;;;;6.63;5.57;;;;;;;;;;4955672;29;20047;-76
2021/11/19 06:43:13;;;;;;;6.45;5.85;;;;;;;;;;4954552;29;20046;-76
2021/11/19 06:46:11;;;;;;;8.43;7.20;;;;;;;;;;4955128;29;20049;-82
2021/11/19 06:48:36;;;;;;;6.65;5.70;;;;;;;;;;4954633;29;20201;-76
2021/11/19 06:51:03;;;;;;;5.68;5.15;;;;;;;;;;4951693;28;20577;-76
2021/11/19 06:53:33;;;;;;;6.05;5.38;;;;;;;;;;4955337;29;20047;-75
2021/11/19 06:56:00;;;;;;;8.93;5.32;;;;;;;;;;4954539;29;20050;-76
2021/11/19 06:58:26;;;;;;;5.30;3.92;;;;;;;;;;4955186;29;20042;-76
2021/11/19 07:00:55;;;;;;;6.70;5.75;;;;;;;;;;4953856;29;20106;-77
2021/11/19 07:03:21;;;;;;;6.63;4.82;;;;;;;;;;4954694;29;20039;-76
2021/11/19 07:05:48;;;;;;;6.55;4.80;;;;;;;;;;4955353;29;20043;-75
2021/11/19 07:08:13;;;;;;;6.38;5.30;;;;;;;;;;4949979;29;20505;-78
2021/11/19 07:10:44;;;;;;;5.85;5.28;;;;;;;;;;4935618;29;20052;-75
2021/11/19 07:13:11;;;;;;;6.97;5.32;;;;;;;;;;4965539;28;20038;-76
2021/11/19 07:15:38;;;;;;;13.65;8.27;;;;;;;;;;4957946;28;20051;-76
2021/11/19 07:18:04;;;;;;;8.18;5.93;;;;;;;;;;4953948;29;20043;-74
2021/11/19 07:20:31;;;;;;;10.85;7.22;;;;;;;;;;4953766;29;20054;-76
2021/11/19 07:22:58;;;;;;;8.57;5.65;;;;;;;;;;4954293;29;20512;-76
2021/11/19 07:25:25;;;;;;;10.13;6.40;;;;;;;;;;4953667;29;20138;-75
2021/11/19 07:27:54;;;;;;;13.70;5.82;;;;;;;;;;4939037;29;20053;-78
2021/11/19 07:30:24;;;;;;;6.75;5.57;;;;;;;;;;4936965;29;20065;-77
2021/11/19 07:32:50;;;;;;;8.95;7.00;;;;;;;;;;4951207;29;20509;-77
2021/11/19 07:35:15;;;;;;;9.82;6.55;;;;;;;;;;4952895;29;20110;-76
2021/11/19 07:37:41;;;;;;;8.25;6.03;;;;;;;;;;4954399;29;20504;-76
2021/11/19 07:40:10;;;;;;;8.57;6.80;;;;;;;;;;4953005;29;20055;-77
2021/11/19 07:42:36;;;;;;;12.20;7.72;;;;;;;;;;4935112;28;20138;-76
2021/11/19 07:45:02;;;;;;;12.45;7.03;;;;;;;;;;4961250;28;20047;-77
2021/11/19 07:47:27;;;;;;;11.30;6.63;;;;;;;;;;4957249;28;20043;-76
2021/11/19 07:49:53;;;;;;;8.98;7.25;;;;;;;;;;4956308;28;20042;-77
2021/11/19 07:52:18;;;;;;;13.20;7.40;;;;;;;;;;4936257;28;20189;-75
2021/11/19 07:54:44;;;;;;;13.70;7.97;;;;;;;;;;4946924;28;20087;-76
2021/11/19 07:57:09;;;;;;;11.68;7.38;;;;;;;;;;4943293;29;20134;-76
2021/11/19 07:59:35;;;;;;;13.02;7.35;;;;;;;;;;4945222;29;20140;-77
2021/11/19 08:02:01;;;;;;;16.33;7.72;;;;;;;;;;4942351;29;20048;-76
2021/11/19 08:04:29;;;;;;;11.93;7.82;;;;;;;;;;4946224;29;20054;-75
2021/11/19 08:06:56;;;;;;;13.75;7.68;;;;;;;;;;4943741;29;20043;-76
2021/11/19 08:09:22;;;;;;;14.23;8.63;;;;;;;;;;4956122;28;20044;-76
2021/11/19 08:11:48;;;;;;;16.30;7.82;;;;;;;;;;4953975;29;20113;-75
2021/11/19 08:14:13;;;;;;;13.13;7.18;;;;;;;;;;4954040;29;20365;-75
2021/11/19 08:16:50;;;;;;;12.73;7.32;;;;;;;;;;4951154;29;20062;-77
2021/11/19 08:19:37;;;;;;;10.55;6.57;;;;;;;;;;4952414;29;20504;-76
2021/11/19 08:22:03;;;;;;;12.93;8.07;;;;;;;;;;4953813;29;20043;-75
2021/11/19 08:24:30;;;;;;;13.18;7.28;;;;;;;;;;4953007;29;20579;-76
2021/11/19 08:27:04;;;;;;;10.20;5.65;;;;;;;;;;4953453;29;20405;-76
2021/11/19 08:29:32;;;;;;;8.55;6.25;;;;;;;;;;4953347;29;20496;-76
2021/11/19 08:31:59;;;;;;;12.25;7.60;;;;;;;;;;4952844;29;20043;-75
2021/11/19 08:34:26;;;;;;;9.32;6.03;;;;;;;;;;4953224;29;20039;-75
2021/11/19 08:36:52;;;;;;;10.45;7.07;;;;;;;;;;4953579;29;20035;-74
2021/11/19 08:39:20;;;;;;;10.93;6.32;;;;;;;;;;4951101;29;20098;-76
2021/11/19 08:41:47;;;;;;;9.02;6.47;;;;;;;;;;4945605;29;20051;-75
2021/11/19 08:44:12;;;;;;;8.57;6.03;;;;;;;;;;4953551;29;20058;-75
2021/11/19 08:46:44;;;;;;;9.48;7.03;;;;;;;;;;4952584;29;20051;-75
2021/11/19 08:49:15;;;;;;;12.23;6.35;;;;;;;;;;4953226;29;20039;-75
2021/11/19 08:51:41;;;;;;;7.85;5.53;;;;;;;;;;4951838;29;20700;-75
2021/11/19 08:54:09;;;;;;;11.82;6.40;;;;;;;;;;4952722;29;20040;-75
2021/11/19 08:56:41;;;;;;;7.25;5.63;;;;;;;;;;4952960;29;20050;-75
2021/11/19 08:59:09;;;;;;;8.07;6.28;;;;;;;;;;4952812;29;20038;-76
2021/11/19 09:01:37;;;;;;;9.30;6.45;;;;;;;;;;4949113;29;20071;-74
2021/11/19 09:04:04;;;;;;;8.27;6.45;;;;;;;;;;4953175;29;20043;-75
2021/11/19 09:06:31;;;;;;;11.18;6.25;;;;;;;;;;4952969;29;20520;-77
2021/11/19 09:08:56;;;;;;;8.48;6.88;;;;;;;;;;4952455;29;20126;-75
2021/11/19 09:11:26;;;;;;;8.18;5.78;;;;;;;;;;4953422;28;20131;-77
2021/11/19 09:13:56;;;;;;;7.97;6.07;;;;;;;;;;4971902;28;20115;-76
2021/11/19 09:16:30;;;;;;;7.15;5.43;;;;;;;;;;4941836;29;20055;-76
2021/11/19 09:19:10;;;;;;;8.50;6.50;;;;;;;;;;4951603;29;20503;-75
2021/11/19 09:21:45;;;;;;;11.15;8.15;;;;;;;;;;4952674;29;20437;-75
2021/11/19 09:24:16;;;;;;;7.70;5.82;;;;;;;;;;4950279;29;20755;-75
2021/11/19 09:26:53;;;;;;;8.10;5.78;;;;;;;;;;4952250;29;20057;-75
2021/11/19 09:29:24;;;;;;;11.00;6.00;;;;;;;;;;4952939;29;20043;-76
2021/11/19 09:31:50;;;;;;;8.00;6.00;;;;;;;;;;4935043;29;20043;-76
2021/11/19 09:34:17;;;;;;;9.60;6.40;;;;;;;;;;4952245;29;20057;-76
2021/11/19 09:36:44;;;;;;;8.48;5.30;;;;;;;;;;4934466;29;20497;-76
2021/11/19 09:39:11;;;;;;;6.90;5.60;;;;;;;;;;4947920;29;20047;-75
2021/11/19 09:41:42;;;;;;;8.38;6.30;;;;;;;;;;4952137;29;20071;-76
2021/11/19 09:44:34;;;;;;;9.30;6.50;;;;;;;;;;4935419;29;20527;-75
2021/11/19 09:47:06;;;;;;;11.00;5.90;;;;;;;;;;4952129;28;20047;-76
2021/11/19 09:49:56;;;;;;;7.18;5.75;;;;;;;;;;4949803;29;20050;-75
2021/11/19 09:52:49;;;;;;;7.65;5.53;;;;;;;;;;4951680;29;20070;-77
2021/11/19 09:55:44;;;;;;;7.28;6.40;;;;;;;;;;4952407;29;20080;-76
2021/11/19 09:58:28;;;;;;;;;;;;;;;;;;4916873;29;20146;-75
2021/11/19 10:01:33;;;;;;;7.15;5.88;;;;;;;;;;4951869;29;19941;-75
2021/11/19 10:04:43;;;;;;;7.18;5.25;;;;;;;;;;4952009;29;20118;-74
2021/11/19 10:07:29;;;;;;;6.63;5.68;;;;;;;;;;4948545;29;20043;-74
2021/11/19 10:10:27;;;;;;;7.15;5.43;;;;;;;;;;4952322;29;20109;-74
2021/11/19 10:13:18;;;;;;;7.53;5.68;;;;;;;;;;4948954;28;20047;-77
2021/11/19 10:15:55;;;;;;;7.03;5.80;;;;;;;;;;4955901;28;20076;-75
2021/11/19 10:18:20;;;;;;;;;;;;;;;;;;4961533;28;20572;-77
2021/11/19 10:20:52;;;;;;;5.65;4.82;;;;;;;;;;4951324;29;19922;-75
2021/11/19 10:23:27;;;;;;;12.70;5.50;;;;;;;;;;4951595;29;20051;-76
2021/11/19 10:26:30;;;;;;;6.30;5.47;;;;;;;;;;4935133;29;20057;-75
2021/11/19 10:29:19;;;;;;;6.25;5.25;;;;;;;;;;4951575;29;20134;-74
2021/11/19 10:31:46;;;;;;;9.25;5.10;;;;;;;;;;4955547;29;20130;-76
2021/11/19 10:34:47;;;;;;;7.85;5.55;;;;;;;;;;4955590;29;20043;-75
2021/11/19 10:37:31;;;;;;;6.25;4.82;;;;;;;;;;4937087;29;20061;-75
2021/11/19 10:40:24;;;;;;;7.30;4.15;;;;;;;;;;4955341;29;20386;-75
2021/11/19 10:43:33;;;;;;;5.88;5.32;;;;;;;;;;4955404;29;20091;-75
2021/11/19 10:46:30;;;;;;;5.50;4.80;;;;;;;;;;4954660;29;20099;-74
2021/11/19 10:49:09;;;;;;;7.15;5.47;;;;;;;;;;4954869;29;20047;-76
2021/11/19 10:51:56;;;;;;;5.22;4.72;;;;;;;;;;4950226;29;20385;-75
2021/11/19 10:54:59;;;;;;;6.00;3.92;;;;;;;;;;4955442;29;20413;-75
2021/11/19 10:58:10;;;;;;;6.47;5.70;;;;;;;;;;4955447;29;20062;-74
2021/11/19 11:00:53;;;;;;;5.43;4.55;;;;;;;;;;4912758;29;20048;-74
2021/11/19 11:03:22;;;;;;;4.97;4.57;;;;;;;;;;4937739;29;20477;-76
2021/11/19 11:06:01;;;;;;;6.75;5.00;;;;;;;;;;4955588;29;20070;-75
2021/11/19 11:08:32;;;;;;;3.92;3.35;;;;;;;;;;4954642;29;20151;-77
2021/11/19 11:11:04;;;;;;;5.30;4.75;;;;;;;;;;4955375;29;20039;-76
2021/11/19 11:14:00;;;;;;;5.68;5.07;;;;;;;;;;4933734;29;20049;-76
2021/11/19 11:16:37;;;;;;;8.13;5.43;;;;;;;;;;4935474;29;20043;-74
2021/11/19 11:19:18;;;;;;;6.65;6.05;;;;;;;;;;4934678;29;20051;-74
2021/11/19 11:21:50;;;;;;;8.40;5.60;;;;;;;;;;4935019;29;20054;-75
2021/11/19 11:24:27;;;;;;;5.32;4.82;;;;;;;;;;4935834;29;20075;-75
2021/11/19 11:27:11;;;;;;;7.00;6.05;;;;;;;;;;4935063;29;20077;-76
2021/11/19 11:30:07;;;;;;;9.07;8.15;;;;;;;;;;4934292;29;20540;-74
2021/11/19 11:33:05;;;;;;;7.80;6.05;;;;;;;;;;4935241;29;20151;-75
2021/11/19 11:35:45;;;;;;;8.30;6.03;;;;;;;;;;4933494;29;20043;-75
2021/11/19 11:38:20;;;;;;;5.68;5.13;;;;;;;;;;4933836;29;20052;-75
2021/11/19 11:40:48;;;;;;;8.63;5.85;;;;;;;;;;4935496;29;20046;-75
2021/11/19 11:43:14;;;;;;;7.38;5.45;;;;;;;;;;4934824;29;20051;-75
2021/11/19 11:45:46;;;;;;;7.15;5.75;;;;;;;;;;4935334;29;20059;-76
2021/11/19 11:48:49;;;;;;;6.30;5.63;;;;;;;;;;4935339;29;20985;-76
2021/11/19 11:51:20;;;;;;;7.95;5.38;;;;;;;;;;4934923;29;20035;-78
2021/11/19 11:53:59;;;;;;;7.22;5.47;;;;;;;;;;4927617;29;20104;-77
2021/11/19 11:56:29;;;;;;;7.20;4.97;;;;;;;;;;4934894;29;20039;-75
2021/11/19 11:58:55;;;;;;;8.88;5.88;;;;;;;;;;4933676;29;20052;-76
2021/11/19 12:02:06;;;;;;;8.10;4.97;;;;;;;;;;4934611;29;20062;-75
2021/11/19 12:05:00;;;;;;;8.18;6.03;;;;;;;;;;4932295;29;20044;-75
2021/11/19 12:07:35;;;;;;;6.10;5.10;;;;;;;;;;4916885;29;20130;-74
2021/11/19 12:10:32;;;;;;;5.65;4.53;;;;;;;;;;4917803;29;20456;-74
2021/11/19 12:13:23;;;;;;;8.10;5.65;;;;;;;;;;4962094;28;20568;-75
2021/11/19 12:16:01;;;;;;;5.97;4.70;;;;;;;;;;4973209;28;20043;-76
2021/11/19 12:18:38;;;;;;;5.50;4.90;;;;;;;;;;4973290;28;20420;-76
2021/11/19 12:21:04;;;;;;;7.50;5.00;;;;;;;;;;4955059;28;20117;-74
2021/11/19 12:23:41;;;;;;;5.65;5.03;;;;;;;;;;4971543;28;20526;-75
2021/11/19 12:26:07;;;;;;;9.10;6.00;;;;;;;;;;4972774;28;20051;-75
2021/11/19 12:28:39;;;;;;;6.30;5.22;;;;;;;;;;4954953;28;20117;-75
2021/11/19 12:31:33;;;;;;;6.20;5.18;;;;;;;;;;4972538;28;20061;-75
2021/11/19 12:34:12;;;;;;;7.28;5.28;;;;;;;;;;4957054;28;20058;-76
2021/11/19 12:36:50;;;;;;;8.10;5.72;;;;;;;;;;4972080;28;20074;-76
2021/11/19 12:39:17;;;;;;;7.25;5.68;;;;;;;;;;4972945;28;20055;-76
2021/11/19 12:41:48;;;;;;;4.82;3.53;;;;;;;;;;4972559;28;20042;-75
2021/11/19 12:44:51;;;;;;;5.72;5.13;;;;;;;;;;4969607;28;20046;-75
2021/11/19 12:47:17;;;;;;;7.47;5.43;;;;;;;;;;4972756;28;20035;-76
2021/11/19 12:50:04;;;;;;;5.78;5.22;;;;;;;;;;4972056;28;20057;-76
2021/11/19 12:52:38;;;;;;;5.90;4.85;;;;;;;;;;4972535;28;20523;-75
2021/11/19 12:55:34;;;;;;;6.45;5.55;;;;;;;;;;4972977;28;20055;-75
2021/11/19 12:58:34;;;;;;;5.68;4.95;;;;;;;;;;4954578;28;20050;-75
2021/11/19 13:01:15;;;;;;;7.22;5.60;;;;;;;;;;4972402;28;20563;-76
2021/11/19 13:03:57;;;;;;;9.60;5.07;;;;;;;;;;4972092;28;20035;-74
2021/11/19 13:06:41;;;;;;;;;;;;;;;;;;4953106;28;20101;-76
2021/11/19 13:09:12;;;;;;;6.72;5.40;;;;;;;;;;4972199;28;19930;-76
2021/11/19 13:11:50;;;;;;;7.22;5.82;;;;;;;;;;4967871;28;20116;-74
2021/11/19 13:14:16;;;;;;;9.80;6.43;;;;;;;;;;4934944;29;20424;-75
2021/11/19 13:16:56;;;;;;;10.88;6.22;;;;;;;;;;4952562;29;20047;-75
2021/11/19 13:19:28;;;;;;;5.60;5.05;;;;;;;;;;4952739;29;20458;-76
2021/11/19 13:22:20;;;;;;;11.02;6.05;;;;;;;;;;4952924;29;20040;-75
2021/11/19 13:25:06;;;;;;;6.13;5.32;;;;;;;;;;4946116;29;20070;-74
2021/11/19 13:27:36;;;;;;;6.78;5.65;;;;;;;;;;4933231;29;20050;-75
2021/11/19 13:30:36;;;;;;;5.63;5.15;;;;;;;;;;4935455;29;20146;-74
2021/11/19 13:33:14;;;;;;;5.88;5.18;;;;;;;;;;4952768;29;20114;-74
2021/11/19 13:35:45;;;;;;;6.95;6.00;;;;;;;;;;4951493;29;20098;-75
2021/11/19 13:38:16;;;;;;;9.05;5.05;;;;;;;;;;4952406;29;20139;-76
2021/11/19 13:40:45;;;;;;;6.82;6.10;;;;;;;;;;4952280;29;20051;-76
2021/11/19 13:43:13;;;;;;;6.20;5.35;;;;;;;;;;4934960;29;20043;-75
2021/11/19 13:45:59;;;;;;;4.95;4.55;;;;;;;;;;4935581;29;20153;-76
2021/11/19 13:48:27;;;;;;;8.45;5.68;;;;;;;;;;4952946;29;20480;-77
2021/11/19 13:50:53;;;;;;;6.20;4.85;;;;;;;;;;4949778;29;20431;-75
2021/11/19 13:53:36;;;;;;;6.50;5.90;;;;;;;;;;4952994;29;20039;-75
2021/11/19 13:56:23;;;;;;;5.88;5.28;;;;;;;;;;4935480;29;20054;-75
2021/11/19 13:59:09;;;;;;;7.30;5.82;;;;;;;;;;4952962;29;20062;-76
2021/11/19 14:01:38;;;;;;;12.20;6.15;;;;;;;;;;4954638;28;20042;-76
2021/11/19 14:04:07;;;;;;;7.53;5.65;;;;;;;;;;4938717;29;20043;-75
2021/11/19 14:06:32;;;;;;;6.68;4.57;;;;;;;;;;4956585;29;20400;-76
2021/11/19 14:09:08;;;;;;;8.40;5.72;;;;;;;;;;4956365;29;20130;-76
2021/11/19 14:11:36;;;;;;;6.78;5.15;;;;;;;;;;4955460;28;20043;-76
2021/11/19 14:14:20;;;;;;;6.55;5.57;;;;;;;;;;4975740;28;20042;-75
2021/11/19 14:16:55;;;;;;;6.28;5.35;;;;;;;;;;4975524;28;20050;-74
2021/11/19 14:22:16;;;;;;;5.75;4.97;;;;;;;;;;4975143;28;20346;-75
2021/11/19 14:25:07;;;;;;;8.70;6.07;;;;;;;;;;4975265;28;20071;-75
2021/11/19 14:27:44;;;;;;;6.18;5.57;;;;;;;;;;4957571;28;20046;-76
2021/11/19 14:30:29;;;;;;;6.53;5.60;;;;;;;;;;4975253;28;20050;-76
2021/11/19 14:32:57;;;;;;;7.95;5.45;;;;;;;;;;4957797;28;20500;-75
2021/11/19 14:35:31;;;;;;;6.55;5.07;;;;;;;;;;4972650;28;20051;-76
2021/11/19 14:38:07;;;;;;;6.63;5.15;;;;;;;;;;4974965;28;20063;-76
2021/11/19 14:41:00;;;;;;;5.28;4.78;;;;;;;;;;4958035;28;20137;-77
2021/11/19 14:43:27;;;;;;;4.90;3.75;;;;;;;;;;4975197;28;20428;-76
2021/11/19 14:45:59;;;;;;;6.18;4.90;;;;;;;;;;4974733;28;20043;-76
2021/11/19 14:49:00;;;;;;;7.68;5.57;;;;;;;;;;4974345;28;20117;-75
2021/11/19 14:51:41;;;;;;;6.50;5.90;;;;;;;;;;4957472;28;20047;-76
2021/11/19 14:54:17;;;;;;;8.38;5.13;;;;;;;;;;4974891;28;20515;-76
2021/11/19 14:56:54;;;;;;;5.43;4.80;;;;;;;;;;4954987;28;20038;-76
2021/11/19 14:59:24;;;;;;;6.53;4.18;;;;;;;;;;4975010;28;20121;-75
2021/11/19 15:01:54;;;;;;;;;;;;;;;;;;4958179;28;20520;-75
2021/11/19 15:04:26;;;;;;;6.82;4.55;;;;;;;;;;4974354;28;19917;-74
2021/11/19 15:07:11;;;;;;;7.90;4.78;;;;;;;;;;4974788;28;20039;-75
2021/11/19 15:09:52;;;;;;;5.72;4.93;;;;;;;;;;4974586;28;20097;-77
2021/11/19 15:12:54;;;;;;;5.03;4.53;;;;;;;;;;4974007;28;20198;-76
2021/11/19 15:15:29;;;;;;;5.45;5.05;;;;;;;;;;4915323;29;20139;-76
2021/11/19 15:17:57;;;;;;;4.70;4.30;;;;;;;;;;4963677;28;20519;-77
2021/11/19 15:20:22;;;;;;;4.63;4.20;;;;;;;;;;4956834;28;20051;-76
2021/11/19 15:22:51;;;;;;;5.28;4.43;;;;;;;;;;4974339;28;20126;-77